Time;durP1;ratioP1;P1;durP2;ratioP2;P2;SDS_P1;SDS_P2;PMS_P1;PMS_P2;Temp;Humidity;BMP_temperature;BMP_pressure;BME280_temperature;BME280_humidity;BME280_pressure;Samples;Min_cycle;Max_cycle;Signal;HPM_P1;HPM_P2
2022/12/06 00:02:15;;;;;;;2.73;2.57;;;;;;;;;;6360288;28;20548;-73
2022/12/06 00:05:20;;;;;;;5.03;2.53;;;;;;;;;;6359749;28;20290;-74
2022/12/06 00:08:25;;;;;;;2.37;2.20;;;;;;;;;;6359643;28;20306;-75
2022/12/06 00:11:31;;;;;;;2.43;2.23;;;;;;;;;;6360387;28;20265;-74
2022/12/06 00:14:36;;;;;;;2.43;2.33;;;;;;;;;;6359641;28;20294;-74
2022/12/06 00:17:43;;;;;;;2.53;2.40;;;;;;;;;;6360428;28;20291;-74
2022/12/06 00:20:48;;;;;;;2.30;2.20;;;;;;;;;;6360601;28;20294;-74
2022/12/06 00:23:55;;;;;;;2.47;2.30;;;;;;;;;;6359397;28;20307;-74
2022/12/06 00:27:00;;;;;;;2.23;2.13;;;;;;;;;;6359697;28;20271;-75
2022/12/06 00:30:06;;;;;;;2.40;2.30;;;;;;;;;;6359444;28;20300;-74
2022/12/06 00:33:15;;;;;;;2.03;2.03;;;;;;;;;;6362103;28;20295;-75
2022/12/06 00:36:23;;;;;;;1.97;1.97;;;;;;;;;;6364258;28;20294;-74
2022/12/06 00:39:28;;;;;;;2.07;1.97;;;;;;;;;;6364090;28;20298;-74
2022/12/06 00:42:33;;;;;;;2.33;2.23;;;;;;;;;;6364442;28;20266;-74
2022/12/06 00:45:38;;;;;;;2.17;2.07;;;;;;;;;;6363862;28;20291;-74
2022/12/06 00:48:45;;;;;;;2.20;2.10;;;;;;;;;;6363838;28;20289;-74
2022/12/06 00:51:50;;;;;;;1.93;1.93;;;;;;;;;;6364437;28;20270;-74
2022/12/06 00:54:55;;;;;;;2.10;2.00;;;;;;;;;;6363495;28;20289;-74
2022/12/06 00:58:00;;;;;;;1.80;1.80;;;;;;;;;;6364379;28;20290;-74
2022/12/06 01:01:10;;;;;;;2.00;2.00;;;;;;;;;;6363740;28;20294;-73
2022/12/06 01:04:16;;;;;;;2.30;2.23;;;;;;;;;;6363695;28;20285;-74
2022/12/06 01:07:21;;;;;;;2.20;2.20;;;;;;;;;;6363816;28;20272;-74
2022/12/06 01:10:27;;;;;;;2.30;2.20;;;;;;;;;;6363332;28;20288;-74
2022/12/06 01:13:32;;;;;;;2.13;2.10;;;;;;;;;;6363206;28;20258;-74
2022/12/06 01:16:38;;;;;;;2.10;2.10;;;;;;;;;;6363383;28;20273;-74
2022/12/06 01:19:44;;;;;;;2.40;2.30;;;;;;;;;;6363636;28;20300;-74
2022/12/06 01:22:49;;;;;;;2.23;2.23;;;;;;;;;;6363778;28;20458;-74
2022/12/06 01:25:54;;;;;;;2.27;2.13;;;;;;;;;;6363167;28;20327;-74
2022/12/06 01:28:59;;;;;;;2.47;2.47;;;;;;;;;;6362675;28;20470;-74
2022/12/06 01:32:04;;;;;;;3.03;2.93;;;;;;;;;;6363347;28;20263;-74
2022/12/06 01:35:13;;;;;;;4.73;3.10;;;;;;;;;;6362354;28;20300;-74
2022/12/06 01:38:18;;;;;;;4.00;2.87;;;;;;;;;;6363533;28;20293;-74
2022/12/06 01:41:24;;;;;;;2.73;2.63;;;;;;;;;;6362600;28;20295;-74
2022/12/06 01:44:41;;;;;;;3.67;3.47;;;;;;;;;;6362373;28;20293;-74
2022/12/06 01:47:46;;;;;;;3.87;2.70;;;;;;;;;;6362979;28;20271;-74
2022/12/06 01:50:53;;;;;;;2.67;2.60;;;;;;;;;;6362012;28;20593;-74
2022/12/06 01:53:58;;;;;;;3.03;2.80;;;;;;;;;;6362016;28;20594;-73
2022/12/06 01:57:06;;;;;;;2.60;2.50;;;;;;;;;;6362820;28;20283;-74
2022/12/06 02:00:12;;;;;;;2.67;2.57;;;;;;;;;;6362488;28;20300;-73
2022/12/06 02:03:21;;;;;;;2.73;2.63;;;;;;;;;;6362232;28;20463;-73
2022/12/06 02:06:28;;;;;;;2.63;2.43;;;;;;;;;;6361622;28;20507;-73
2022/12/06 02:09:34;;;;;;;2.37;2.27;;;;;;;;;;6361159;28;20600;-74
2022/12/06 02:12:39;;;;;;;2.53;2.43;;;;;;;;;;6362195;28;20265;-74
2022/12/06 02:15:53;;;;;;;2.90;2.57;;;;;;;;;;6361972;28;20296;-73
2022/12/06 02:19:04;;;;;;;2.77;2.77;;;;;;;;;;6361644;28;20325;-72
2022/12/06 02:22:16;;;;;;;3.00;2.90;;;;;;;;;;6362185;28;20268;-74
2022/12/06 02:25:47;;;;;;;3.53;3.30;;;;;;;;;;6361828;28;20296;-74
2022/12/06 02:29:44;;;;;;;2.60;2.40;;;;;;;;;;6361144;28;20300;-74
2022/12/06 02:32:57;;;;;;;3.00;2.90;;;;;;;;;;6361826;28;20272;-74
2022/12/06 02:36:06;;;;;;;3.37;3.20;;;;;;;;;;6361653;28;20306;-74
2022/12/06 02:39:15;;;;;;;3.13;2.90;;;;;;;;;;6361257;28;20294;-74
2022/12/06 02:42:22;;;;;;;3.23;3.07;;;;;;;;;;6361962;28;20447;-73
2022/12/06 02:45:29;;;;;;;2.70;2.60;;;;;;;;;;6361160;28;20630;-73
2022/12/06 02:48:35;;;;;;;3.57;3.43;;;;;;;;;;6361127;28;20547;-74
2022/12/06 02:51:41;;;;;;;3.13;3.03;;;;;;;;;;6361386;28;20274;-74
2022/12/06 02:54:47;;;;;;;3.33;3.13;;;;;;;;;;6360356;28;20295;-74
2022/12/06 02:57:55;;;;;;;3.30;3.20;;;;;;;;;;6360978;28;20268;-73
2022/12/06 03:01:01;;;;;;;2.93;2.80;;;;;;;;;;6361321;28;20481;-74
2022/12/06 03:04:31;;;;;;;3.20;3.00;;;;;;;;;;6360759;28;20278;-73
2022/12/06 03:07:40;;;;;;;3.00;2.90;;;;;;;;;;6361418;28;20272;-75
2022/12/06 03:10:49;;;;;;;3.70;3.53;;;;;;;;;;6360519;28;20300;-73
2022/12/06 03:13:59;;;;;;;3.60;3.30;;;;;;;;;;6360421;28;20297;-74
2022/12/06 03:17:10;;;;;;;3.43;3.30;;;;;;;;;;6360828;28;20276;-74
2022/12/06 03:20:21;;;;;;;3.57;3.37;;;;;;;;;;6360322;28;20309;-74
2022/12/06 03:23:30;;;;;;;3.13;3.03;;;;;;;;;;6360443;28;20266;-73
2022/12/06 03:26:35;;;;;;;3.77;3.40;;;;;;;;;;6360927;28;20271;-74
2022/12/06 03:29:41;;;;;;;3.63;3.43;;;;;;;;;;6342188;28;20295;-74
2022/12/06 03:32:48;;;;;;;3.93;3.63;;;;;;;;;;6361154;28;20447;-74
2022/12/06 03:35:54;;;;;;;3.87;3.43;;;;;;;;;;6360307;28;20594;-74
2022/12/06 03:39:03;;;;;;;3.67;3.47;;;;;;;;;;6360361;28;20600;-74
2022/12/06 03:42:09;;;;;;;4.60;4.20;;;;;;;;;;6360387;28;20270;-74
2022/12/06 03:45:14;;;;;;;3.97;3.67;;;;;;;;;;6360094;28;20302;-74
2022/12/06 03:48:22;;;;;;;3.83;3.57;;;;;;;;;;6360648;28;20266;-74
2022/12/06 03:51:30;;;;;;;4.20;3.43;;;;;;;;;;6359977;28;20290;-74
2022/12/06 03:54:35;;;;;;;4.37;3.97;;;;;;;;;;6338663;28;20612;-74
2022/12/06 03:57:40;;;;;;;4.03;3.73;;;;;;;;;;6334929;28;20272;-74
2022/12/06 04:00:45;;;;;;;4.97;4.30;;;;;;;;;;6340523;28;20301;-74
2022/12/06 04:03:51;;;;;;;4.13;3.83;;;;;;;;;;6356369;28;20286;-74
2022/12/06 04:06:57;;;;;;;3.77;3.67;;;;;;;;;;6359970;28;20456;-75
2022/12/06 04:10:02;;;;;;;4.30;3.90;;;;;;;;;;6363849;28;20290;-74
2022/12/06 04:13:08;;;;;;;3.70;3.50;;;;;;;;;;6364966;28;20263;-74
2022/12/06 04:19:35;;;;;;;3.80;3.50;;;;;;;;;;6364621;28;20283;-73
2022/12/06 04:26:05;;;;;;;3.90;3.67;;;;;;;;;;6364608;28;20584;-74
2022/12/06 04:39:21;;;;;;;4.20;4.00;;;;;;;;;;6338834;28;20585;-74
2022/12/06 04:45:48;;;;;;;4.93;4.17;;;;;;;;;;6338550;28;20294;-73
2022/12/06 04:48:53;;;;;;;4.43;4.00;;;;;;;;;;6338808;28;20301;-73
2022/12/06 04:51:58;;;;;;;4.13;3.80;;;;;;;;;;6339276;28;20285;-74
2022/12/06 04:55:05;;;;;;;4.20;3.90;;;;;;;;;;6338751;28;20290;-73
2022/12/06 04:58:11;;;;;;;7.30;4.73;;;;;;;;;;6338586;28;20273;-73
2022/12/06 05:01:16;;;;;;;4.73;4.33;;;;;;;;;;6338338;28;20303;-73
2022/12/06 05:04:21;;;;;;;4.50;4.10;;;;;;;;;;6337958;28;20290;-74
2022/12/06 05:07:26;;;;;;;5.60;4.20;;;;;;;;;;6338794;28;20275;-73
2022/12/06 05:10:33;;;;;;;5.53;4.03;;;;;;;;;;6338059;28;20297;-75
2022/12/06 05:13:37;;;;;;;4.53;4.23;;;;;;;;;;6338249;28;20516;-73
2022/12/06 05:16:42;;;;;;;5.63;4.20;;;;;;;;;;6338565;28;20296;-73
2022/12/06 05:19:48;;;;;;;5.27;4.07;;;;;;;;;;6337407;28;20317;-74
2022/12/06 05:22:52;;;;;;;4.47;4.07;;;;;;;;;;6338343;28;20577;-75
2022/12/06 05:26:03;;;;;;;5.50;3.93;;;;;;;;;;6338044;28;20582;-73
2022/12/06 05:29:08;;;;;;;4.43;4.13;;;;;;;;;;6337914;28;20290;-75
2022/12/06 05:32:13;;;;;;;4.20;3.90;;;;;;;;;;6337875;28;20484;-74
2022/12/06 05:35:18;;;;;;;4.00;3.77;;;;;;;;;;6337721;28;20297;-74
2022/12/06 05:38:23;;;;;;;3.80;3.60;;;;;;;;;;6337552;28;20269;-73
2022/12/06 05:41:29;;;;;;;4.37;3.97;;;;;;;;;;6336389;28;20272;-74
2022/12/06 05:44:34;;;;;;;4.70;4.30;;;;;;;;;;6337410;28;20297;-74
2022/12/06 05:47:39;;;;;;;4.30;4.00;;;;;;;;;;6337624;28;20277;-74
2022/12/06 05:50:47;;;;;;;4.67;3.83;;;;;;;;;;6337178;28;20590;-74
2022/12/06 05:53:51;;;;;;;4.57;4.17;;;;;;;;;;6336782;28;20293;-75
2022/12/06 05:56:58;;;;;;;4.73;4.17;;;;;;;;;;6337833;28;20510;-74
2022/12/06 06:00:03;;;;;;;4.00;3.80;;;;;;;;;;6336794;28;20296;-75
2022/12/06 06:03:16;;;;;;;4.60;4.23;;;;;;;;;;6337597;28;20265;-75
2022/12/06 06:06:22;;;;;;;6.83;4.17;;;;;;;;;;6337056;28;20306;-75
2022/12/06 06:09:27;;;;;;;5.33;4.00;;;;;;;;;;6336297;28;20307;-73
2022/12/06 06:12:33;;;;;;;4.40;3.90;;;;;;;;;;6354875;28;20531;-73
2022/12/06 06:15:38;;;;;;;3.70;3.50;;;;;;;;;;6361766;28;20294;-73
2022/12/06 06:18:43;;;;;;;3.60;3.30;;;;;;;;;;6361677;28;20445;-74
2022/12/06 06:21:49;;;;;;;3.30;3.20;;;;;;;;;;6361899;28;20277;-75
2022/12/06 06:24:53;;;;;;;3.80;3.60;;;;;;;;;;6361035;28;20597;-74
2022/12/06 06:28:00;;;;;;;3.63;3.43;;;;;;;;;;6361942;28;20265;-73
2022/12/06 06:31:05;;;;;;;3.50;3.30;;;;;;;;;;6360121;28;20300;-73
2022/12/06 06:34:10;;;;;;;3.60;3.40;;;;;;;;;;6361068;28;20292;-74
2022/12/06 06:37:15;;;;;;;3.80;3.57;;;;;;;;;;6361412;28;20276;-74
2022/12/06 06:40:20;;;;;;;3.70;3.27;;;;;;;;;;6361135;28;20431;-74
2022/12/06 06:43:26;;;;;;;4.00;3.60;;;;;;;;;;6361397;28;20466;-74
2022/12/06 06:46:31;;;;;;;3.43;3.23;;;;;;;;;;6360285;28;20307;-74
2022/12/06 06:49:36;;;;;;;3.63;3.33;;;;;;;;;;6361493;28;20313;-74
2022/12/06 06:52:41;;;;;;;2.90;2.80;;;;;;;;;;6361066;28;20291;-74
2022/12/06 06:55:47;;;;;;;4.00;3.50;;;;;;;;;;6360519;28;20292;-74
2022/12/06 06:58:53;;;;;;;3.03;2.93;;;;;;;;;;6360800;28;20296;-75
2022/12/06 07:01:58;;;;;;;5.17;3.43;;;;;;;;;;6361138;28;20419;-74
2022/12/06 07:05:03;;;;;;;3.80;3.50;;;;;;;;;;6360516;28;20301;-75
2022/12/06 07:08:08;;;;;;;3.43;3.23;;;;;;;;;;6361080;28;20320;-75
2022/12/06 07:11:13;;;;;;;3.67;3.40;;;;;;;;;;6360637;28;20366;-75
2022/12/06 07:14:20;;;;;;;3.30;3.10;;;;;;;;;;6360407;28;20303;-75
2022/12/06 07:17:25;;;;;;;3.50;3.23;;;;;;;;;;6360770;28;20277;-75
2022/12/06 07:20:29;;;;;;;3.20;3.00;;;;;;;;;;6360785;28;20297;-75
2022/12/06 07:23:36;;;;;;;4.97;3.40;;;;;;;;;;6360404;28;20275;-74
2022/12/06 07:26:40;;;;;;;3.63;3.33;;;;;;;;;;6360592;28;20433;-74
2022/12/06 07:29:47;;;;;;;3.90;3.60;;;;;;;;;;6359997;28;20600;-75
2022/12/06 07:32:52;;;;;;;3.00;2.87;;;;;;;;;;6361077;28;20288;-74
2022/12/06 07:35:57;;;;;;;2.80;2.70;;;;;;;;;;6360492;28;20296;-73
2022/12/06 07:39:18;;;;;;;2.87;2.67;;;;;;;;;;6359890;28;20309;-74
2022/12/06 07:45:46;;;;;;;2.80;2.70;;;;;;;;;;6365325;28;20296;-74
2022/12/06 07:48:51;;;;;;;3.23;3.03;;;;;;;;;;6365436;28;20296;-74
2022/12/06 07:51:56;;;;;;;3.30;2.93;;;;;;;;;;6365718;28;20287;-74
2022/12/06 07:55:02;;;;;;;9.30;2.90;;;;;;;;;;6364973;28;20468;-74
2022/12/06 07:58:07;;;;;;;2.60;2.60;;;;;;;;;;6347272;28;20271;-75
2022/12/06 08:01:14;;;;;;;2.83;2.67;;;;;;;;;;6365049;28;20292;-74
2022/12/06 08:04:19;;;;;;;3.00;2.80;;;;;;;;;;6365007;28;20303;-74
2022/12/06 08:07:24;;;;;;;3.10;2.90;;;;;;;;;;6365101;28;20281;-73
2022/12/06 08:10:29;;;;;;;3.07;2.97;;;;;;;;;;6314320;28;20301;-74
2022/12/06 08:13:35;;;;;;;3.07;2.97;;;;;;;;;;6314071;28;20463;-74
2022/12/06 08:16:42;;;;;;;3.53;3.33;;;;;;;;;;6315008;28;20270;-73
2022/12/06 08:19:46;;;;;;;2.80;2.70;;;;;;;;;;6314210;28;20301;-74
2022/12/06 08:22:51;;;;;;;2.73;2.53;;;;;;;;;;6314918;28;20278;-74
2022/12/06 08:25:57;;;;;;;4.83;3.00;;;;;;;;;;6313982;28;20297;-74
2022/12/06 08:29:02;;;;;;;3.03;2.93;;;;;;;;;;6313790;28;20313;-74
2022/12/06 08:32:08;;;;;;;2.60;2.50;;;;;;;;;;6314681;28;20293;-74
2022/12/06 08:35:13;;;;;;;2.87;2.73;;;;;;;;;;6314128;28;20299;-74
2022/12/06 08:38:18;;;;;;;3.17;2.97;;;;;;;;;;6314672;28;20270;-73
2022/12/06 08:44:50;;;;;;;2.77;2.73;;;;;;;;;;6313719;28;20299;-74
2022/12/06 08:47:56;;;;;;;3.10;2.90;;;;;;;;;;6314315;28;20345;-75
2022/12/06 08:51:02;;;;;;;3.50;3.30;;;;;;;;;;6314046;28;20298;-73
2022/12/06 08:54:08;;;;;;;3.10;2.90;;;;;;;;;;6312889;28;20290;-74
2022/12/06 08:57:13;;;;;;;3.10;2.90;;;;;;;;;;6314012;28;20279;-74
2022/12/06 09:00:19;;;;;;;3.27;2.93;;;;;;;;;;6312973;28;20295;-74
2022/12/06 09:03:25;;;;;;;2.93;2.80;;;;;;;;;;6312576;28;20274;-74
2022/12/06 09:06:30;;;;;;;2.70;2.60;;;;;;;;;;6312803;28;20334;-74
2022/12/06 09:09:35;;;;;;;2.70;2.60;;;;;;;;;;6349514;28;20300;-74
2022/12/06 09:12:40;;;;;;;2.80;2.60;;;;;;;;;;6363511;28;20576;-74
2022/12/06 09:15:45;;;;;;;2.63;2.57;;;;;;;;;;6362740;28;20290;-76
2022/12/06 09:18:52;;;;;;;2.67;2.67;;;;;;;;;;6363240;28;20297;-75
2022/12/06 09:21:57;;;;;;;4.00;2.60;;;;;;;;;;6364022;28;20282;-75
2022/12/06 09:25:02;;;;;;;2.93;2.73;;;;;;;;;;6362919;28;20295;-75
2022/12/06 09:28:07;;;;;;;2.80;2.63;;;;;;;;;;6363428;28;20270;-75
2022/12/06 09:31:12;;;;;;;2.53;2.40;;;;;;;;;;6362868;28;20482;-75
2022/12/06 09:34:18;;;;;;;2.67;2.57;;;;;;;;;;6362523;28;20298;-74
2022/12/06 09:37:24;;;;;;;2.80;2.63;;;;;;;;;;6363233;28;20275;-74
2022/12/06 09:40:33;;;;;;;2.30;2.30;;;;;;;;;;6362546;28;20300;-74
2022/12/06 09:43:56;;;;;;;2.77;2.67;;;;;;;;;;6362642;28;20314;-75
2022/12/06 09:47:10;;;;;;;2.50;2.40;;;;;;;;;;6362684;28;20318;-74
2022/12/06 09:50:21;;;;;;;2.47;2.40;;;;;;;;;;6362542;28;20478;-74
2022/12/06 09:53:35;;;;;;;2.90;2.80;;;;;;;;;;6362261;28;20291;-75
2022/12/06 09:56:44;;;;;;;2.70;2.57;;;;;;;;;;6362491;28;20371;-74
2022/12/06 09:59:55;;;;;;;2.53;2.37;;;;;;;;;;6360865;28;20296;-74
2022/12/06 10:03:28;;;;;;;2.73;2.53;;;;;;;;;;6362686;28;20276;-74
2022/12/06 10:06:42;;;;;;;3.53;3.00;;;;;;;;;;6359391;28;20271;-75
2022/12/06 10:09:56;;;;;;;2.50;2.40;;;;;;;;;;6361534;28;20296;-74
2022/12/06 10:13:04;;;;;;;3.43;2.80;;;;;;;;;;6362217;28;20464;-74
2022/12/06 10:16:20;;;;;;;3.87;2.70;;;;;;;;;;6361996;28;20295;-74
2022/12/06 10:19:34;;;;;;;2.10;2.10;;;;;;;;;;6361154;28;20296;-75
2022/12/06 10:22:51;;;;;;;3.83;2.03;;;;;;;;;;6362216;28;20271;-75
2022/12/06 10:26:02;;;;;;;2.57;2.47;;;;;;;;;;6360934;28;20300;-74
2022/12/06 10:29:15;;;;;;;2.60;2.40;;;;;;;;;;6361110;28;20312;-74
2022/12/06 10:32:25;;;;;;;2.90;2.70;;;;;;;;;;6361970;28;20276;-74
2022/12/06 10:35:40;;;;;;;2.90;2.70;;;;;;;;;;6361359;28;20299;-74
2022/12/06 10:38:50;;;;;;;2.90;2.70;;;;;;;;;;6360828;28;20259;-74
2022/12/06 10:42:00;;;;;;;2.30;2.20;;;;;;;;;;6361777;28;20567;-74
2022/12/06 10:47:02;;;;;;;3.50;2.37;;;;;;;;;;6361108;28;20392;-73
2022/12/06 10:48:40;;;;;;;2.50;2.40;;;;;;;;;;6360729;28;20268;-76
2022/12/06 10:51:47;;;;;;;4.87;2.47;;;;;;;;;;6361482;28;20271;-74
2022/12/06 10:55:03;;;;;;;2.40;2.33;;;;;;;;;;6360978;28;20302;-75
2022/12/06 10:58:17;;;;;;;2.50;2.40;;;;;;;;;;6361605;28;20266;-75
2022/12/06 11:01:27;;;;;;;2.63;2.60;;;;;;;;;;6360473;28;20296;-75
2022/12/06 11:04:34;;;;;;;3.57;2.50;;;;;;;;;;6360806;28;20300;-75
2022/12/06 11:07:41;;;;;;;3.97;2.20;;;;;;;;;;6361124;28;20271;-74
2022/12/06 11:10:48;;;;;;;2.53;2.47;;;;;;;;;;6342485;28;20311;-75
2022/12/06 11:13:56;;;;;;;2.63;2.63;;;;;;;;;;6360421;28;20295;-75
2022/12/06 11:17:05;;;;;;;2.60;2.40;;;;;;;;;;6360248;28;20273;-75
2022/12/06 11:20:21;;;;;;;2.83;2.70;;;;;;;;;;6359970;28;20298;-75
2022/12/06 11:23:32;;;;;;;2.50;2.50;;;;;;;;;;6360477;28;20276;-76
2022/12/06 11:26:42;;;;;;;2.90;2.80;;;;;;;;;;6361066;28;20277;-74
2022/12/06 11:29:48;;;;;;;2.60;2.50;;;;;;;;;;6360457;28;20304;-74
2022/12/06 11:32:54;;;;;;;2.20;2.20;;;;;;;;;;6360956;28;20273;-74
2022/12/06 11:36:03;;;;;;;2.60;2.50;;;;;;;;;;6360376;28;20304;-75
2022/12/06 11:39:08;;;;;;;3.30;2.47;;;;;;;;;;6360064;28;20296;-75
2022/12/06 11:42:15;;;;;;;9.80;5.87;;;;;;;;;;6360502;28;20267;-75
2022/12/06 11:45:25;;;;;;;21.30;11.80;;;;;;;;;;6360463;28;20300;-75
2022/12/06 11:48:33;;;;;;;8.60;6.97;;;;;;;;;;6360087;28;20271;-75
2022/12/06 11:51:38;;;;;;;9.23;4.83;;;;;;;;;;6343218;28;20272;-75
2022/12/06 11:54:46;;;;;;;3.53;3.33;;;;;;;;;;6359931;28;20300;-75
2022/12/06 11:57:53;;;;;;;4.47;3.07;;;;;;;;;;6360808;28;20272;-75
2022/12/06 12:01:01;;;;;;;2.67;2.57;;;;;;;;;;6360267;28;20292;-75
2022/12/06 12:04:38;;;;;;;2.60;2.50;;;;;;;;;;6360444;28;20288;-74
2022/12/06 12:07:45;;;;;;;3.17;3.00;;;;;;;;;;6358325;28;20465;-75
2022/12/06 12:11:00;;;;;;;4.10;3.80;;;;;;;;;;6360157;28;20299;-74
2022/12/06 12:14:16;;;;;;;4.23;3.60;;;;;;;;;;6341677;28;20290;-75
2022/12/06 12:17:23;;;;;;;46.50;26.93;;;;;;;;;;6360882;28;20272;-73
2022/12/06 12:20:30;;;;;;;58.80;32.53;;;;;;;;;;6359771;28;20292;-74
2022/12/06 12:23:37;;;;;;;26.03;15.67;;;;;;;;;;6359418;28;20448;-74
2022/12/06 12:26:42;;;;;;;4.03;3.73;;;;;;;;;;6360147;28;20268;-74
2022/12/06 12:29:50;;;;;;;2.20;2.10;;;;;;;;;;6362675;28;20295;-75
2022/12/06 12:33:15;;;;;;;2.63;2.50;;;;;;;;;;6365127;28;20263;-75
2022/12/06 12:36:24;;;;;;;3.53;2.47;;;;;;;;;;6364364;28;20300;-75
2022/12/06 12:39:33;;;;;;;2.50;2.30;;;;;;;;;;6346323;28;20292;-73
2022/12/06 12:42:38;;;;;;;3.10;2.47;;;;;;;;;;6364369;28;20268;-74
2022/12/06 12:46:05;;;;;;;2.60;2.40;;;;;;;;;;6364283;28;20299;-74
2022/12/06 12:49:32;;;;;;;2.40;2.30;;;;;;;;;;6363951;28;20581;-74
2022/12/06 12:52:39;;;;;;;2.33;2.20;;;;;;;;;;6360190;28;20267;-73
2022/12/06 12:55:44;;;;;;;2.93;2.40;;;;;;;;;;6363554;28;20299;-74
2022/12/06 12:58:52;;;;;;;2.53;2.40;;;;;;;;;;6363578;28;20600;-73
2022/12/06 13:02:04;;;;;;;2.73;2.57;;;;;;;;;;6363586;28;20275;-74
2022/12/06 13:05:16;;;;;;;2.73;2.57;;;;;;;;;;6363567;28;20308;-74
2022/12/06 13:08:38;;;;;;;3.50;2.40;;;;;;;;;;6363160;28;20296;-74
2022/12/06 13:11:47;;;;;;;2.50;2.40;;;;;;;;;;6364108;28;20263;-74
2022/12/06 13:14:56;;;;;;;2.50;2.40;;;;;;;;;;6363182;28;20291;-74
2022/12/06 13:18:07;;;;;;;2.20;2.20;;;;;;;;;;6364072;28;20263;-73
2022/12/06 13:21:17;;;;;;;2.30;2.20;;;;;;;;;;6363213;28;20295;-74
2022/12/06 13:24:25;;;;;;;5.67;2.43;;;;;;;;;;6362863;28;20297;-73
2022/12/06 13:27:33;;;;;;;2.13;2.03;;;;;;;;;;6345964;28;20269;-75
2022/12/06 13:30:40;;;;;;;2.07;2.07;;;;;;;;;;6363371;28;20595;-74
2022/12/06 13:33:49;;;;;;;2.97;2.77;;;;;;;;;;6363210;28;20275;-73
2022/12/06 13:36:54;;;;;;;5.20;2.10;;;;;;;;;;6363390;28;20594;-73
2022/12/06 13:40:00;;;;;;;8.33;2.70;;;;;;;;;;6362199;28;20300;-74
2022/12/06 13:43:17;;;;;;;2.53;2.30;;;;;;;;;;6362734;28;20584;-74
2022/12/06 13:46:28;;;;;;;2.93;2.40;;;;;;;;;;6362764;28;20309;-74
2022/12/06 13:49:44;;;;;;;2.77;2.57;;;;;;;;;;6362650;28;20296;-74
2022/12/06 13:53:02;;;;;;;5.07;2.60;;;;;;;;;;6362798;28;20267;-74
2022/12/06 13:56:26;;;;;;;2.57;2.43;;;;;;;;;;6362163;28;20484;-74
2022/12/06 13:59:49;;;;;;;2.70;2.50;;;;;;;;;;6362201;28;20308;-73
2022/12/06 14:02:54;;;;;;;2.63;2.53;;;;;;;;;;6344915;28;20266;-73
2022/12/06 14:06:03;;;;;;;2.23;2.23;;;;;;;;;;6361693;28;20309;-73
2022/12/06 14:09:18;;;;;;;2.13;2.13;;;;;;;;;;6361414;28;20302;-74
2022/12/06 14:12:25;;;;;;;3.53;2.30;;;;;;;;;;6362490;28;20259;-74
2022/12/06 14:15:30;;;;;;;3.80;2.40;;;;;;;;;;6361583;28;20300;-75
2022/12/06 14:18:38;;;;;;;3.73;2.50;;;;;;;;;;6361988;28;20268;-74
2022/12/06 14:21:52;;;;;;;2.40;2.20;;;;;;;;;;6362415;28;20559;-74
2022/12/06 14:25:01;;;;;;;2.70;2.30;;;;;;;;;;6361574;28;20309;-74
2022/12/06 14:28:10;;;;;;;2.50;2.40;;;;;;;;;;6362154;28;20442;-74
2022/12/06 14:31:21;;;;;;;2.67;2.30;;;;;;;;;;6361647;28;20303;-73
2022/12/06 14:34:28;;;;;;;2.70;2.53;;;;;;;;;;6361164;28;20292;-74
2022/12/06 14:37:35;;;;;;;2.60;2.40;;;;;;;;;;6361748;28;20289;-74
2022/12/06 14:44:00;;;;;;;2.33;2.23;;;;;;;;;;6316943;28;20297;-75
2022/12/06 14:47:05;;;;;;;2.30;2.20;;;;;;;;;;6343856;28;20273;-73
2022/12/06 14:50:27;;;;;;;3.67;2.20;;;;;;;;;;6361187;28;20307;-73
2022/12/06 14:53:34;;;;;;;2.40;2.30;;;;;;;;;;6360685;28;20525;-74
2022/12/06 14:56:39;;;;;;;2.70;2.30;;;;;;;;;;6361455;28;20290;-74
2022/12/06 14:59:44;;;;;;;4.13;2.63;;;;;;;;;;6360935;28;20311;-74
2022/12/06 15:03:27;;;;;;;3.63;2.70;;;;;;;;;;6360655;28;20281;-73
2022/12/06 15:06:34;;;;;;;2.07;2.07;;;;;;;;;;6360693;28;20271;-73
2022/12/06 15:09:46;;;;;;;2.47;2.27;;;;;;;;;;6360398;28;20296;-74
2022/12/06 15:12:57;;;;;;;2.07;2.03;;;;;;;;;;6360952;28;20264;-74
2022/12/06 15:16:12;;;;;;;3.80;2.43;;;;;;;;;;6342887;28;20226;-74
2022/12/06 15:19:18;;;;;;;2.27;2.13;;;;;;;;;;6360893;28;20301;-74
2022/12/06 15:22:25;;;;;;;6.83;4.97;;;;;;;;;;6360388;28;20272;-74
2022/12/06 15:25:31;;;;;;;13.57;6.33;;;;;;;;;;6342445;28;20292;-74
2022/12/06 15:28:37;;;;;;;3.93;2.60;;;;;;;;;;6360695;28;20270;-75
2022/12/06 15:31:43;;;;;;;3.23;2.87;;;;;;;;;;6360973;28;20569;-74
2022/12/06 15:34:48;;;;;;;5.47;2.67;;;;;;;;;;6360190;28;20304;-73
2022/12/06 15:37:53;;;;;;;7.17;5.80;;;;;;;;;;6360893;28;20281;-73
2022/12/06 15:40:59;;;;;;;3.90;3.60;;;;;;;;;;6358259;28;20298;-74
2022/12/06 15:44:04;;;;;;;3.93;3.13;;;;;;;;;;6360419;28;20279;-74
2022/12/06 15:47:11;;;;;;;4.37;2.30;;;;;;;;;;6358683;28;20296;-75
2022/12/06 15:50:17;;;;;;;6.73;2.10;;;;;;;;;;6360785;28;20274;-75
2022/12/06 15:53:23;;;;;;;1.93;1.90;;;;;;;;;;6360052;28;20604;-75
2022/12/06 15:56:30;;;;;;;2.30;2.20;;;;;;;;;;6341545;28;20296;-74
2022/12/06 15:59:35;;;;;;;2.80;2.33;;;;;;;;;;6335181;28;20267;-73
2022/12/06 16:02:40;;;;;;;2.20;2.10;;;;;;;;;;6336381;28;20303;-74
2022/12/06 16:05:45;;;;;;;2.17;2.07;;;;;;;;;;6339405;28;20270;-75
2022/12/06 16:08:50;;;;;;;2.07;1.97;;;;;;;;;;6340210;28;20301;-75
2022/12/06 16:11:56;;;;;;;2.60;2.40;;;;;;;;;;6339453;28;20293;-74
2022/12/06 16:15:01;;;;;;;2.47;2.37;;;;;;;;;;6340172;28;20512;-74
2022/12/06 16:18:07;;;;;;;2.60;2.50;;;;;;;;;;6339424;28;20296;-74
2022/12/06 16:21:20;;;;;;;4.30;1.90;;;;;;;;;;6339665;28;20292;-74
2022/12/06 16:24:24;;;;;;;5.73;2.27;;;;;;;;;;6340066;28;20436;-74
2022/12/06 16:27:31;;;;;;;2.50;2.30;;;;;;;;;;6339208;28;20307;-74
2022/12/06 16:30:36;;;;;;;4.43;2.47;;;;;;;;;;6339180;28;20273;-75
2022/12/06 16:33:41;;;;;;;5.97;2.30;;;;;;;;;;6339592;28;20394;-73
2022/12/06 16:37:01;;;;;;;2.53;2.33;;;;;;;;;;6339083;28;20297;-75
2022/12/06 16:40:07;;;;;;;2.97;2.40;;;;;;;;;;6339181;28;20289;-80
2022/12/06 16:43:13;;;;;;;3.97;2.63;;;;;;;;;;6338950;28;20299;-75
2022/12/06 16:46:23;;;;;;;4.23;2.40;;;;;;;;;;6338903;28;20291;-77
2022/12/06 16:49:29;;;;;;;2.20;2.10;;;;;;;;;;6339190;28;20276;-75
2022/12/06 16:52:53;;;;;;;3.17;2.57;;;;;;;;;;6337730;28;20628;-72
2022/12/06 16:55:57;;;;;;;2.23;2.00;;;;;;;;;;6338877;28;20375;-76
2022/12/06 16:59:04;;;;;;;2.10;2.00;;;;;;;;;;6338648;28;20292;-75
2022/12/06 17:02:26;;;;;;;2.47;2.13;;;;;;;;;;6338438;28;20291;-75
2022/12/06 17:05:31;;;;;;;5.90;1.97;;;;;;;;;;6338859;28;20271;-75
2022/12/06 17:08:36;;;;;;;2.30;2.20;;;;;;;;;;6338033;28;20675;-75
2022/12/06 17:15:06;;;;;;;2.60;2.40;;;;;;;;;;6362807;28;20264;-75
2022/12/06 17:18:12;;;;;;;4.63;2.87;;;;;;;;;;6363104;28;20306;-76
2022/12/06 17:21:17;;;;;;;4.83;2.77;;;;;;;;;;6363003;28;20298;-76
2022/12/06 17:24:23;;;;;;;5.07;2.53;;;;;;;;;;6363839;28;20271;-74
2022/12/06 17:27:28;;;;;;;5.60;2.63;;;;;;;;;;6362982;28;20298;-74
2022/12/06 17:30:35;;;;;;;6.00;2.73;;;;;;;;;;6363207;28;20451;-74
2022/12/06 17:33:40;;;;;;;4.90;2.47;;;;;;;;;;6362207;28;20269;-73
2022/12/06 17:36:45;;;;;;;2.97;2.67;;;;;;;;;;6362913;28;20295;-73
2022/12/06 17:39:50;;;;;;;3.73;2.73;;;;;;;;;;6363101;28;20265;-74
2022/12/06 17:43:00;;;;;;;2.93;2.67;;;;;;;;;;6362620;28;20367;-71
2022/12/06 17:46:09;;;;;;;6.93;2.70;;;;;;;;;;6362485;28;20297;-73
2022/12/06 17:49:15;;;;;;;5.73;3.00;;;;;;;;;;6363307;28;20276;-74
2022/12/06 17:52:20;;;;;;;3.20;2.63;;;;;;;;;;6344558;28;20297;-73
2022/12/06 17:55:25;;;;;;;4.70;3.10;;;;;;;;;;6362580;28;20459;-73
2022/12/06 17:58:30;;;;;;;5.97;2.50;;;;;;;;;;6362099;28;20584;-74
2022/12/06 18:01:37;;;;;;;3.13;2.50;;;;;;;;;;6361982;28;20306;-74
2022/12/06 18:05:02;;;;;;;3.00;2.80;;;;;;;;;;6362727;28;20274;-75
2022/12/06 18:08:08;;;;;;;8.23;5.27;;;;;;;;;;6361946;28;20295;-76
2022/12/06 18:11:14;;;;;;;7.03;3.57;;;;;;;;;;6362048;28;20291;-75
2022/12/06 18:14:19;;;;;;;4.30;3.13;;;;;;;;;;6344290;28;20263;-74
2022/12/06 18:17:25;;;;;;;4.37;2.77;;;;;;;;;;6362302;28;20521;-75
2022/12/06 18:20:30;;;;;;;3.00;2.80;;;;;;;;;;6362417;28;20268;-75
2022/12/06 18:23:35;;;;;;;3.30;3.00;;;;;;;;;;6361241;28;20298;-74
2022/12/06 18:26:52;;;;;;;4.17;3.03;;;;;;;;;;6360868;28;20291;-74
2022/12/06 18:29:57;;;;;;;3.27;2.83;;;;;;;;;;6360919;28;20647;-75
2022/12/06 18:33:04;;;;;;;5.37;3.50;;;;;;;;;;6361718;28;20298;-74
2022/12/06 18:36:12;;;;;;;6.00;3.13;;;;;;;;;;6361870;28;20491;-75
2022/12/06 18:39:23;;;;;;;4.67;3.07;;;;;;;;;;6362337;28;20356;-75
2022/12/06 18:42:28;;;;;;;4.37;3.20;;;;;;;;;;6361471;28;20306;-75
2022/12/06 18:45:32;;;;;;;5.17;3.03;;;;;;;;;;6344002;28;20266;-74
2022/12/06 18:48:40;;;;;;;3.63;2.90;;;;;;;;;;6361209;28;20430;-73
2022/12/06 18:51:46;;;;;;;5.10;2.80;;;;;;;;;;6361265;28;20300;-74
2022/12/06 18:54:51;;;;;;;3.50;3.20;;;;;;;;;;6361317;28;20272;-73
2022/12/06 18:57:56;;;;;;;6.70;3.07;;;;;;;;;;6361082;28;20302;-73
2022/12/06 19:01:01;;;;;;;9.10;3.23;;;;;;;;;;6360503;28;20286;-73
2022/12/06 19:04:10;;;;;;;3.53;3.20;;;;;;;;;;6361683;28;20400;-74
2022/12/06 19:07:15;;;;;;;6.30;2.97;;;;;;;;;;6360977;28;20298;-75
2022/12/06 19:10:27;;;;;;;4.97;3.00;;;;;;;;;;6336064;28;20296;-70
2022/12/06 19:13:32;;;;;;;3.23;2.93;;;;;;;;;;6304651;28;20319;-73
2022/12/06 19:16:38;;;;;;;7.93;3.13;;;;;;;;;;6286064;28;20317;-69
2022/12/06 19:19:45;;;;;;;5.67;2.63;;;;;;;;;;6286353;28;20289;-69
2022/12/06 19:22:50;;;;;;;3.97;2.80;;;;;;;;;;6285510;28;20297;-68